Time;durP1;ratioP1;P1;durP2;ratioP2;P2;SDS_P1;SDS_P2;PMS_P1;PMS_P2;Temp;Humidity;BMP_temperature;BMP_pressure;BME280_temperature;BME280_humidity;BME280_pressure;Samples;Min_cycle;Max_cycle;Signal;HPM_P1;HPM_P2
2022/12/19 00:01:06;;;;;;;;;;;;;;;4.65;61.31;96796.63;5114356;28;1003;-58
2022/12/19 00:03:32;;;;;;;;;;;;;;;4.86;61.06;96807.84;5114037;28;1013;-58
2022/12/19 00:06:02;;;;;;;;;;;;;;;4.96;61.08;96808.16;5113019;28;958;-58
2022/12/19 00:08:28;;;;;;;;;;;;;;;4.90;60.48;96811.16;5114046;28;1043;-58
2022/12/19 00:10:56;;;;;;;;;;;;;;;4.93;60.57;96810.97;5114009;28;1028;-58
2022/12/19 00:13:22;;;;;;;;;;;;;;;4.91;61.26;96814.66;5114072;28;2015;-58
2022/12/19 00:15:48;;;;;;;;;;;;;;;4.91;60.44;96820.81;5114001;28;1044;-57
2022/12/19 00:18:14;;;;;;;;;;;;;;;4.81;60.05;96823.13;5113988;28;1075;-57
2022/12/19 00:20:40;;;;;;;;;;;;;;;4.68;59.60;96822.94;5113946;28;1043;-58
2022/12/19 00:23:06;;;;;;;;;;;;;;;4.52;59.81;96822.09;5113957;28;967;-57
2022/12/19 00:25:32;;;;;;;;;;;;;;;4.54;60.46;96828.16;5114056;28;1447;-57
2022/12/19 00:27:58;;;;;;;;;;;;;;;4.80;60.90;96833.81;5114106;28;952;-57
2022/12/19 00:30:24;;;;;;;;;;;;;;;5.00;59.36;96835.38;5113735;28;1047;-57
2022/12/19 00:32:50;;;;;;;;;;;;;;;4.95;59.04;96838.28;5113882;28;1902;-57
2022/12/19 00:35:16;;;;;;;;;;;;;;;4.98;59.36;96839.91;5113798;28;1011;-57
2022/12/19 00:37:43;;;;;;;;;;;;;;;4.84;59.06;96833.56;5112498;28;1039;-58
2022/12/19 00:40:09;;;;;;;;;;;;;;;4.95;59.50;96842.72;5114006;28;948;-57
2022/12/19 00:42:35;;;;;;;;;;;;;;;4.94;59.41;96848.97;5112678;28;1027;-58
2022/12/19 00:45:01;;;;;;;;;;;;;;;5.00;59.63;96843.31;5113912;28;941;-58
2022/12/19 00:47:27;;;;;;;;;;;;;;;5.18;59.24;96849.38;5113612;28;1568;-57
2022/12/19 00:49:53;;;;;;;;;;;;;;;5.23;59.29;96853.47;5113737;28;999;-58
2022/12/19 00:52:19;;;;;;;;;;;;;;;5.30;58.23;96858.47;5113358;28;1273;-58
2022/12/19 00:54:46;;;;;;;;;;;;;;;5.32;58.38;96853.91;5112608;28;1914;-58
2022/12/19 00:57:12;;;;;;;;;;;;;;;5.36;58.18;96864.25;5113789;28;1024;-58
2022/12/19 00:59:39;;;;;;;;;;;;;;;5.35;57.87;96856.38;5116145;28;1055;-58
2022/12/19 01:02:05;;;;;;;;;;;;;;;5.19;57.75;96857.25;5117607;28;1102;-58
2022/12/19 01:04:31;;;;;;;;;;;;;;;5.14;58.18;96854.03;5116301;28;948;-58
2022/12/19 01:06:57;;;;;;;;;;;;;;;5.01;58.17;96859.16;5116295;28;1023;-57
2022/12/19 01:09:23;;;;;;;;;;;;;;;5.03;58.70;96851.97;5117615;28;1007;-57
2022/12/19 01:14:34;;;;;;;;;;;;;;;5.10;57.98;96857.75;5117205;28;1906;-57
2022/12/19 01:17:00;;;;;;;;;;;;;;;4.93;57.91;96863.16;5117343;28;1008;-57
2022/12/19 01:19:26;;;;;;;;;;;;;;;4.82;58.65;96859.31;5115979;28;979;-57
2022/12/19 01:21:53;;;;;;;;;;;;;;;4.89;57.93;96859.81;5117521;28;988;-57
2022/12/19 01:24:19;;;;;;;;;;;;;;;4.78;58.64;96857.75;5116128;28;1063;-57
2022/12/19 01:26:45;;;;;;;;;;;;;;;4.77;58.43;96856.03;5117234;28;1004;-57
2022/12/19 01:29:11;;;;;;;;;;;;;;;4.73;58.35;96854.50;5117174;28;1019;-57
2022/12/19 01:31:37;;;;;;;;;;;;;;;4.55;58.50;96858.97;5117040;28;1012;-57
2022/12/19 01:34:03;;;;;;;;;;;;;;;4.55;58.73;96858.13;5116892;28;1998;-57
2022/12/19 01:36:29;;;;;;;;;;;;;;;4.52;58.64;96855.66;5116867;28;1094;-57
2022/12/19 01:38:56;;;;;;;;;;;;;;;4.41;57.88;96848.28;5117099;28;1038;-57
2022/12/19 01:41:22;;;;;;;;;;;;;;;4.30;58.79;96856.78;5116905;28;960;-57
2022/12/19 01:44:07;;;;;;;;;;;;;;;4.31;59.26;96863.81;5116757;28;1099;-57
2022/12/19 01:46:39;;;;;;;;;;;;;;;4.38;58.68;96864.34;5116693;28;1006;-57
2022/12/19 01:49:10;;;;;;;;;;;;;;;4.25;58.58;96869.41;5115458;28;1945;-57
2022/12/19 01:51:39;;;;;;;;;;;;;;;4.19;58.59;96864.44;5115317;28;1100;-57
2022/12/19 01:54:07;;;;;;;;;;;;;;;3.88;59.07;96855.44;5116633;28;1906;-57
2022/12/19 01:56:35;;;;;;;;;;;;;;;4.01;59.63;96861.81;5116527;28;975;-57
2022/12/19 01:59:04;;;;;;;;;;;;;;;4.05;59.15;96855.44;5116555;28;1027;-57
2022/12/19 02:01:30;;;;;;;;;;;;;;;3.95;58.91;96859.50;5116657;28;1003;-57
2022/12/19 02:03:58;;;;;;;;;;;;;;;4.02;59.29;96852.97;5116619;28;1008;-57
2022/12/19 02:06:25;;;;;;;;;;;;;;;3.91;58.59;96860.59;5115358;28;864;-57
2022/12/19 02:08:52;;;;;;;;;;;;;;;4.01;59.59;96869.75;5116053;27;1528;-57
2022/12/19 02:11:18;;;;;;;;;;;;;;;4.13;58.77;96870.91;5115445;28;1082;-57
2022/12/19 02:13:44;;;;;;;;;;;;;;;4.23;58.76;96866.88;5116166;28;1992;-57
2022/12/19 02:16:16;;;;;;;;;;;;;;;4.29;58.21;96876.28;5116473;28;948;-57
2022/12/19 02:19:01;;;;;;;;;;;;;;;4.38;58.96;96865.22;5116184;28;961;-57
2022/12/19 02:21:32;;;;;;;;;;;;;;;4.31;58.41;96866.47;5116129;28;956;-57
2022/12/19 02:23:58;;;;;;;;;;;;;;;4.36;58.44;96871.50;5116135;27;1039;-57
2022/12/19 02:26:33;;;;;;;;;;;;;;;4.44;58.84;96870.19;5115838;28;992;-57
2022/12/19 02:29:05;;;;;;;;;;;;;;;4.28;58.35;96870.09;5116168;28;1026;-57
2022/12/19 02:31:35;;;;;;;;;;;;;;;4.33;58.70;96864.59;5114770;28;1000;-57
2022/12/19 02:34:04;;;;;;;;;;;;;;;4.46;58.24;96873.59;5115744;28;1988;-57
2022/12/19 02:36:30;;;;;;;;;;;;;;;4.63;58.47;96870.06;5115778;28;1031;-57
2022/12/19 02:38:58;;;;;;;;;;;;;;;4.39;58.32;96879.31;5115604;28;1063;-57
2022/12/19 02:41:27;;;;;;;;;;;;;;;4.27;58.85;96878.16;5115802;28;1004;-57
2022/12/19 02:43:55;;;;;;;;;;;;;;;4.27;59.03;96886.94;5114229;28;1075;-57
2022/12/19 02:46:21;;;;;;;;;;;;;;;4.27;58.95;96886.94;5115526;28;1082;-57
2022/12/19 02:48:48;;;;;;;;;;;;;;;4.41;59.21;96896.81;5115534;28;1400;-57
2022/12/19 02:51:14;;;;;;;;;;;;;;;4.50;59.04;96890.19;5114170;28;1223;-57
2022/12/19 02:53:41;;;;;;;;;;;;;;;4.50;59.63;96888.38;5114075;28;1902;-57
2022/12/19 02:56:10;;;;;;;;;;;;;;;4.52;59.14;96885.66;5115620;28;952;-57
2022/12/19 02:58:45;;;;;;;;;;;;;;;4.44;59.95;96883.41;5115434;28;1024;-57
2022/12/19 03:01:22;;;;;;;;;;;;;;;4.37;59.82;96883.81;5115243;28;1119;-57
2022/12/19 03:03:50;;;;;;;;;;;;;;;4.37;60.25;96884.66;5115207;28;928;-57
2022/12/19 03:06:19;;;;;;;;;;;;;;;4.53;60.68;96886.50;5115399;28;1075;-57
2022/12/19 03:08:52;;;;;;;;;;;;;;;4.59;60.65;96888.81;5115361;28;1011;-57
2022/12/19 03:11:21;;;;;;;;;;;;;;;4.48;60.23;96895.56;5115179;28;963;-57
2022/12/19 03:13:52;;;;;;;;;;;;;;;4.54;60.57;96890.88;5114968;28;1906;-57
2022/12/19 03:16:18;;;;;;;;;;;;;;;4.49;60.49;96888.47;5114915;28;1078;-58
2022/12/19 03:18:44;;;;;;;;;;;;;;;4.54;60.96;96882.94;5114935;28;963;-57
2022/12/19 03:21:18;;;;;;;;;;;;;;;4.47;60.46;96875.28;5113782;28;991;-57
2022/12/19 03:23:44;;;;;;;;;;;;;;;4.55;61.16;96879.34;5113716;28;1564;-57
2022/12/19 03:26:16;;;;;;;;;;;;;;;4.55;61.35;96887.28;5114964;28;969;-57
2022/12/19 03:28:53;;;;;;;;;;;;;;;4.39;61.82;96884.59;5113545;28;1050;-57
2022/12/19 03:31:21;;;;;;;;;;;;;;;4.35;61.79;96878.59;5114733;28;924;-57
2022/12/19 03:33:51;;;;;;;;;;;;;;;4.27;62.11;96879.00;5114617;28;1910;-57
2022/12/19 03:36:19;;;;;;;;;;;;;;;4.30;62.01;96889.41;5114757;28;949;-57
2022/12/19 03:38:46;;;;;;;;;;;;;;;4.26;62.40;96884.38;5114573;28;1043;-57
2022/12/19 03:41:14;;;;;;;;;;;;;;;4.38;63.01;96885.53;5114476;28;1036;-57
2022/12/19 03:43:42;;;;;;;;;;;;;;;4.43;62.41;96886.16;5114341;28;1985;-57
2022/12/19 03:46:18;;;;;;;;;;;;;;;4.44;62.23;96888.72;5114501;28;1032;-57
2022/12/19 03:48:46;;;;;;;;;;;;;;;4.26;62.69;96905.56;5113436;28;1611;-57
2022/12/19 03:51:15;;;;;;;;;;;;;;;4.29;63.12;96895.66;5114367;27;1064;-57
2022/12/19 03:53:54;;;;;;;;;;;;;;;4.38;63.03;96902.28;5114251;28;948;-57
2022/12/19 03:56:29;;;;;;;;;;;;;;;4.38;63.02;96904.06;5114216;28;1137;-57
2022/12/19 03:59:15;;;;;;;;;;;;;;;4.39;62.63;96900.50;5114512;28;948;-57
2022/12/19 04:01:42;;;;;;;;;;;;;;;4.40;62.73;96904.84;5114008;28;1223;-57
2022/12/19 04:04:09;;;;;;;;;;;;;;;4.27;63.24;96909.94;5114107;28;1984;-57
2022/12/19 04:06:36;;;;;;;;;;;;;;;4.40;63.29;96918.06;5112881;28;1059;-57
2022/12/19 04:09:03;;;;;;;;;;;;;;;4.39;63.26;96919.88;5114102;28;975;-57
2022/12/19 04:11:33;;;;;;;;;;;;;;;4.35;63.74;96923.63;5113977;28;1071;-57
2022/12/19 04:14:02;;;;;;;;;;;;;;;4.28;64.39;96919.56;5114327;28;1067;-57
2022/12/19 04:16:32;;;;;;;;;;;;;;;4.28;63.96;96922.22;5114009;28;957;-57
2022/12/19 04:19:02;;;;;;;;;;;;;;;4.29;64.03;96921.31;5114069;28;1083;-57
2022/12/19 04:21:33;;;;;;;;;;;;;;;4.38;64.04;96933.19;5113893;28;1098;-57
2022/12/19 04:24:03;;;;;;;;;;;;;;;4.48;63.68;96935.28;5113886;28;1990;-57
2022/12/19 04:26:31;;;;;;;;;;;;;;;4.42;63.57;96935.63;5113090;28;967;-57
2022/12/19 04:29:00;;;;;;;;;;;;;;;4.41;64.16;96930.41;5114015;28;976;-57
2022/12/19 04:31:26;;;;;;;;;;;;;;;4.38;64.00;96933.19;5113818;28;1004;-57
2022/12/19 04:33:52;;;;;;;;;;;;;;;4.50;64.17;96932.56;5115178;28;963;-57
2022/12/19 04:36:18;;;;;;;;;;;;;;;4.67;63.72;96936.97;5118350;27;968;-57
2022/12/19 04:38:44;;;;;;;;;;;;;;;4.73;63.17;96939.31;5118065;27;1016;-57
2022/12/19 04:41:11;;;;;;;;;;;;;;;4.70;63.55;96928.84;5116953;28;1015;-57
2022/12/19 04:43:37;;;;;;;;;;;;;;;4.68;63.50;96936.03;5116646;28;1980;-57
2022/12/19 04:46:03;;;;;;;;;;;;;;;4.72;63.17;96928.78;5116827;28;1028;-57
2022/12/19 04:48:29;;;;;;;;;;;;;;;4.75;63.61;96934.78;5117682;28;1536;-57
2022/12/19 04:50:55;;;;;;;;;;;;;;;4.80;63.45;96939.81;5117795;28;1207;-57
2022/12/19 04:53:21;;;;;;;;;;;;;;;4.72;63.43;96937.56;5117681;28;1051;-58
2022/12/19 04:55:48;;;;;;;;;;;;;;;4.76;64.13;96940.94;5117748;28;1079;-57
2022/12/19 04:58:14;;;;;;;;;;;;;;;4.82;63.59;96944.13;5116682;28;1003;-56
2022/12/19 05:00:40;;;;;;;;;;;;;;;4.80;63.38;96938.03;5117722;28;1059;-57
2022/12/19 05:03:06;;;;;;;;;;;;;;;4.80;63.91;96939.81;5116320;28;1906;-57
2022/12/19 05:05:32;;;;;;;;;;;;;;;4.85;63.83;96946.59;5117746;28;1031;-57
2022/12/19 05:07:58;;;;;;;;;;;;;;;4.89;63.89;96955.22;5117534;28;1047;-57
2022/12/19 05:10:24;;;;;;;;;;;;;;;4.97;63.68;96953.06;5116357;28;1002;-57
2022/12/19 05:12:52;;;;;;;;;;;;;;;5.02;63.83;96956.28;5117530;28;995;-57
2022/12/19 05:15:18;;;;;;;;;;;;;;;4.98;62.94;96952.09;5117406;28;940;-57
2022/12/19 05:17:44;;;;;;;;;;;;;;;4.92;63.26;96959.53;5117283;28;1012;-57
2022/12/19 05:20:10;;;;;;;;;;;;;;;4.89;63.69;96955.22;5117537;28;1064;-57
2022/12/19 05:22:36;;;;;;;;;;;;;;;4.94;63.55;96955.84;5117165;28;1099;-57
2022/12/19 05:25:02;;;;;;;;;;;;;;;4.91;63.69;96948.06;5117349;28;1980;-57
2022/12/19 05:27:28;;;;;;;;;;;;;;;4.89;63.93;96958.75;5115897;28;1078;-57
2022/12/19 05:29:54;;;;;;;;;;;;;;;4.94;63.53;96957.66;5117173;28;1017;-57
2022/12/19 05:32:21;;;;;;;;;;;;;;;4.83;63.59;96961.72;5117001;28;955;-57
2022/12/19 05:34:47;;;;;;;;;;;;;;;4.78;63.53;96962.91;5117000;28;1059;-57
2022/12/19 05:37:13;;;;;;;;;;;;;;;4.85;63.70;96966.94;5115989;28;1039;-57
2022/12/19 05:39:39;;;;;;;;;;;;;;;4.88;63.50;96962.34;5117042;28;1059;-57
2022/12/19 05:42:05;;;;;;;;;;;;;;;4.84;63.29;96954.66;5115654;28;1090;-57
2022/12/19 05:44:31;;;;;;;;;;;;;;;4.88;63.60;96965.00;5115396;28;1902;-57
2022/12/19 05:46:57;;;;;;;;;;;;;;;4.89;63.34;96956.13;5115535;28;1075;-58
2022/12/19 05:49:23;;;;;;;;;;;;;;;4.87;63.59;96962.41;5115622;28;1638;-59
2022/12/19 05:51:49;;;;;;;;;;;;;;;4.83;63.51;96972.31;5116620;28;1191;-58
2022/12/19 05:54:15;;;;;;;;;;;;;;;4.86;63.49;96958.06;5115586;28;1119;-58
2022/12/19 05:56:42;;;;;;;;;;;;;;;4.83;63.16;96964.38;5115457;28;973;-58
2022/12/19 05:59:08;;;;;;;;;;;;;;;4.82;63.46;96962.66;5115450;28;964;-58
2022/12/19 06:01:34;;;;;;;;;;;;;;;4.82;63.82;96970.63;5116316;28;1111;-58
2022/12/19 06:04:00;;;;;;;;;;;;;;;4.88;63.44;96965.00;5116337;28;2001;-58
2022/12/19 06:06:26;;;;;;;;;;;;;;;4.92;63.91;96975.44;5116306;28;1083;-58
2022/12/19 06:08:56;;;;;;;;;;;;;;;5.02;63.08;96977.50;5116385;27;1121;-57
2022/12/19 06:11:22;;;;;;;;;;;;;;;4.97;63.27;96973.38;5116251;28;1110;-56
2022/12/19 06:13:49;;;;;;;;;;;;;;;4.93;63.65;96972.69;5116333;28;1027;-57
2022/12/19 06:16:17;;;;;;;;;;;;;;;5.00;63.70;96973.22;5116201;28;968;-57
2022/12/19 06:18:43;;;;;;;;;;;;;;;5.07;63.43;96972.81;5116252;28;1206;-57
2022/12/19 06:21:11;;;;;;;;;;;;;;;5.13;63.10;96982.22;5116244;28;1055;-57
2022/12/19 06:23:37;;;;;;;;;;;;;;;5.15;62.94;96982.16;5115961;28;1906;-57
2022/12/19 06:26:04;;;;;;;;;;;;;;;5.12;62.45;96979.66;5116092;28;1015;-57
2022/12/19 06:28:31;;;;;;;;;;;;;;;5.01;62.92;96986.41;5114596;28;1083;-57
2022/12/19 06:30:57;;;;;;;;;;;;;;;5.05;62.87;96987.09;5115697;28;1027;-57
2022/12/19 06:33:24;;;;;;;;;;;;;;;5.04;62.96;96985.38;5115931;28;1035;-57
2022/12/19 06:36:00;;;;;;;;;;;;;;;5.09;63.69;96988.66;5115949;28;1115;-60
2022/12/19 06:38:27;;;;;;;;;;;;;;;5.20;62.44;96993.38;5114321;28;1083;-57
2022/12/19 06:43:51;;;;;;;;;;;;;;;5.07;61.85;97001.97;5092251;28;1996;-57
2022/12/19 06:46:17;;;;;;;;;;;;;;;5.17;61.94;97006.78;5114684;28;995;-57
2022/12/19 06:48:43;;;;;;;;;;;;;;;5.17;62.36;97018.25;5115471;28;1539;-57
2022/12/19 06:51:09;;;;;;;;;;;;;;;5.18;62.04;97012.03;5115389;28;1079;-57
2022/12/19 06:53:35;;;;;;;;;;;;;;;5.12;62.30;97014.97;5115393;28;1016;-58
2022/12/19 06:56:02;;;;;;;;;;;;;;;5.18;61.51;97022.63;5114807;28;1119;-58
2022/12/19 06:58:28;;;;;;;;;;;;;;;5.15;61.81;97024.59;5115226;28;1027;-58
2022/12/19 07:00:55;;;;;;;;;;;;;;;5.21;62.10;97027.75;5115510;28;1039;-58
2022/12/19 07:03:23;;;;;;;;;;;;;;;5.34;60.70;97033.25;5115111;27;1906;-58
2022/12/19 07:05:49;;;;;;;;;;;;;;;5.39;61.65;97035.69;5115336;28;996;-58
2022/12/19 07:08:15;;;;;;;;;;;;;;;5.49;60.89;97036.88;5115185;28;1097;-58
2022/12/19 07:10:41;;;;;;;;;;;;;;;5.56;61.03;97040.03;5115011;28;955;-58
2022/12/19 07:13:07;;;;;;;;;;;;;;;5.54;60.18;97044.56;5115080;28;1091;-58
2022/12/19 07:15:34;;;;;;;;;;;;;;;5.46;61.21;97037.91;5113950;28;949;-58
2022/12/19 07:18:02;;;;;;;;;;;;;;;5.48;60.89;97040.47;5114977;28;1031;-58
2022/12/19 07:20:30;;;;;;;;;;;;;;;5.57;61.05;97045.28;5114923;28;1103;-57
2022/12/19 07:22:56;;;;;;;;;;;;;;;5.68;60.56;97050.84;5114859;28;1663;-58
2022/12/19 07:25:22;;;;;;;;;;;;;;;5.78;60.00;97056.50;5113414;28;1973;-58
2022/12/19 07:27:48;;;;;;;;;;;;;;;5.74;60.25;97051.47;5113826;28;943;-58
2022/12/19 07:30:14;;;;;;;;;;;;;;;5.68;58.82;97053.50;5114927;28;963;-57
2022/12/19 07:32:40;;;;;;;;;;;;;;;5.66;59.96;97051.88;5113411;28;1040;-59
2022/12/19 07:35:06;;;;;;;;;;;;;;;5.74;59.61;97056.78;5114749;28;1016;-57
2022/12/19 07:37:33;;;;;;;;;;;;;;;5.60;58.65;97057.53;5114482;28;1024;-57
2022/12/19 07:39:59;;;;;;;;;;;;;;;5.60;59.75;97060.19;5114572;28;1018;-57
2022/12/19 07:42:25;;;;;;;;;;;;;;;5.76;59.24;97065.50;5113491;28;1051;-57
2022/12/19 07:44:51;;;;;;;;;;;;;;;5.79;59.04;97066.19;5114418;28;1910;-57
2022/12/19 07:47:17;;;;;;;;;;;;;;;5.90;58.86;97062.06;5114594;28;1606;-57
2022/12/19 07:49:43;;;;;;;;;;;;;;;6.00;58.13;97066.81;5114404;28;1508;-57
2022/12/19 07:52:09;;;;;;;;;;;;;;;6.09;58.02;97054.84;5113060;28;1265;-57
2022/12/19 07:54:35;;;;;;;;;;;;;;;6.16;58.61;97066.81;5114189;28;992;-57
2022/12/19 07:57:02;;;;;;;;;;;;;;;6.10;57.93;97061.84;5114559;28;980;-58
2022/12/19 07:59:28;;;;;;;;;;;;;;;6.11;56.92;97065.34;5114153;27;1023;-58
2022/12/19 08:01:54;;;;;;;;;;;;;;;6.05;57.93;97067.44;5114341;28;1035;-58
2022/12/19 08:04:20;;;;;;;;;;;;;;;6.09;57.25;97078.75;5114056;28;1898;-58
2022/12/19 08:06:46;;;;;;;;;;;;;;;6.05;57.00;97078.06;5114007;28;999;-59
2022/12/19 08:09:13;;;;;;;;;;;;;;;6.04;58.52;97078.97;5113412;28;1020;-58
2022/12/19 08:11:39;;;;;;;;;;;;;;;6.12;57.52;97085.66;5114307;28;1015;-58
2022/12/19 08:14:05;;;;;;;;;;;;;;;6.02;57.36;97080.88;5114277;28;980;-58
2022/12/19 08:16:31;;;;;;;;;;;;;;;5.98;57.32;97082.00;5113984;28;1110;-58
2022/12/19 08:18:57;;;;;;;;;;;;;;;6.06;58.31;97087.72;5147160;27;1004;-58
2022/12/19 08:21:23;;;;;;;;;;;;;;;6.20;57.60;97086.09;5113944;28;984;-57
2022/12/19 08:23:49;;;;;;;;;;;;;;;6.29;56.58;97082.06;5113805;28;1902;-57
2022/12/19 08:26:18;;;;;;;;;;;;;;;6.35;57.28;97087.88;5114084;28;1074;-57
2022/12/19 08:28:46;;;;;;;;;;;;;;;6.40;57.33;97082.31;5114098;28;999;-58
2022/12/19 08:31:14;;;;;;;;;;;;;;;6.28;56.48;97088.31;5113856;28;1023;-57
2022/12/19 08:33:41;;;;;;;;;;;;;;;6.19;57.47;97090.53;5112660;28;1024;-58
2022/12/19 08:36:08;;;;;;;;;;;;;;;6.18;57.56;97088.81;5113812;28;1044;-58
2022/12/19 08:38:34;;;;;;;;;;;;;;;6.15;57.68;97096.13;5113603;28;1119;-58
2022/12/19 08:41:01;;;;;;;;;;;;;;;6.23;57.01;97096.56;5112755;28;973;-58
2022/12/19 08:43:27;;;;;;;;;;;;;;;6.24;57.27;97106.22;5112571;28;1917;-58
2022/12/19 08:45:53;;;;;;;;;;;;;;;6.19;56.93;97100.31;5113906;28;1113;-58
2022/12/19 08:48:19;;;;;;;;;;;;;;;5.96;56.70;97102.47;5113583;28;1302;-58
2022/12/19 08:50:52;;;;;;;;;;;;;;;5.87;57.67;97095.81;5113583;28;1086;-58
2022/12/19 08:53:19;;;;;;;;;;;;;;;6.01;57.09;97097.75;5113492;28;1111;-57
2022/12/19 08:55:45;;;;;;;;;;;;;;;6.22;57.28;97081.53;5114060;28;980;-57
2022/12/19 08:58:11;;;;;;;;;;;;;;;6.33;56.50;97089.75;5113621;28;1070;-57
2022/12/19 09:00:37;;;;;;;;;;;;;;;6.45;56.79;97086.41;5113627;28;1027;-58
2022/12/19 09:03:03;;;;;;;;;;;;;;;6.42;56.41;97083.91;5113451;28;1982;-57
2022/12/19 09:05:29;;;;;;;;;;;;;;;6.37;55.95;97085.97;5112262;28;968;-57
2022/12/19 09:07:55;;;;;;;;;;;;;;;6.42;56.97;97083.06;5113517;28;1115;-57
2022/12/19 09:10:21;;;;;;;;;;;;;;;6.48;56.22;97090.69;5113406;28;1020;-57
2022/12/19 09:12:47;;;;;;;;;;;;;;;6.23;56.39;97081.47;5113444;28;1031;-57
2022/12/19 09:15:13;;;;;;;;;;;;;;;6.13;57.01;97080.28;5113553;28;1015;-57
2022/12/19 09:17:39;;;;;;;;;;;;;;;6.36;57.58;97078.13;5113396;28;972;-57
2022/12/19 09:20:06;;;;;;;;;;;;;;;6.41;57.54;97076.91;5116034;28;1086;-57
2022/12/19 09:22:32;;;;;;;;;;;;;;;6.54;57.35;97085.00;5117091;27;1032;-57
2022/12/19 09:24:58;;;;;;;;;;;;;;;6.50;56.83;97079.97;5116126;28;1910;-57
2022/12/19 09:27:24;;;;;;;;;;;;;;;6.32;57.32;97066.81;5116992;28;1032;-57
2022/12/19 09:29:50;;;;;;;;;;;;;;;6.45;57.68;97069.63;5117185;28;1051;-57
2022/12/19 09:32:16;;;;;;;;;;;;;;;6.39;56.78;97068.16;5117036;28;1047;-57
2022/12/19 09:34:42;;;;;;;;;;;;;;;6.51;57.17;97063.94;5116923;28;999;-57
2022/12/19 09:37:09;;;;;;;;;;;;;;;6.71;56.51;97064.56;5116885;28;1020;-57
2022/12/19 09:39:35;;;;;;;;;;;;;;;6.79;55.57;97043.69;5117049;28;1042;-57
2022/12/19 09:42:02;;;;;;;;;;;;;;;6.86;55.62;97041.53;5116967;28;1060;-57
2022/12/19 09:44:31;;;;;;;;;;;;;;;6.79;55.86;97028.63;5116660;28;1984;-57
2022/12/19 09:46:59;;;;;;;;;;;;;;;6.68;55.88;97036.38;5116726;28;1027;-57
2022/12/19 09:49:33;;;;;;;;;;;;;;;6.79;56.34;97028.63;5116493;28;1290;-57
2022/12/19 09:52:31;;;;;;;;;;;;;;;6.73;55.79;97023.63;5095168;28;1163;-58
2022/12/19 09:55:09;;;;;;;;;;;;;;;6.73;55.37;97025.44;5076079;28;932;-57
2022/12/19 09:57:41;;;;;;;;;;;;;;;6.86;55.34;97026.44;5075870;28;1028;-57
2022/12/19 10:00:07;;;;;;;;;;;;;;;6.95;56.26;97017.91;5075760;28;968;-57
2022/12/19 10:02:34;;;;;;;;;;;;;;;6.93;55.76;97013.63;5075950;28;1194;-57
2022/12/19 10:05:19;;;;;;;;;;;;;;;6.88;55.56;97016.56;5075918;28;1910;-57
2022/12/19 10:07:45;;;;;;;;;;;;;;;7.01;56.71;97012.19;5075740;28;1032;-57
2022/12/19 10:10:15;;;;;;;;;;;;;;;7.14;55.28;97006.97;5075636;28;1051;-57
2022/12/19 10:12:44;;;;;;;;;;;;;;;6.96;55.58;97010.75;5075512;28;1044;-57
2022/12/19 10:15:19;;;;;;;;;;;;;;;7.03;55.38;97004.13;5074629;28;1016;-57
2022/12/19 10:18:08;;;;;;;;;;;;;;;7.02;55.50;96995.31;5075634;28;956;-58
2022/12/19 10:20:37;;;;;;;;;;;;;;;7.30;55.37;96995.38;5075239;28;1411;-57
2022/12/19 10:23:23;;;;;;;;;;;;;;;7.19;54.26;96983.63;5075406;28;972;-58
2022/12/19 10:25:55;;;;;;;;;;;;;;;7.35;55.20;96987.97;5074137;28;1181;-58
2022/12/19 10:28:27;;;;;;;;;;;;;;;7.47;53.61;96983.69;5075360;28;948;-57
2022/12/19 10:31:06;;;;;;;;;;;;;;;7.28;55.48;96981.31;5074420;28;1007;-57
2022/12/19 10:33:41;;;;;;;;;;;;;;;7.35;53.70;96980.00;5075144;28;1218;-58
2022/12/19 10:36:09;;;;;;;;;;;;;;;7.48;52.49;96972.09;5075474;28;913;-57
2022/12/19 10:38:41;;;;;;;;;;;;;;;7.56;53.94;96969.78;5075016;28;1083;-58
2022/12/19 10:41:13;;;;;;;;;;;;;;;7.56;53.83;96973.31;5075080;28;1231;-58
2022/12/19 10:43:58;;;;;;;;;;;;;;;7.57;53.94;96972.38;5074913;28;1914;-58
2022/12/19 10:46:34;;;;;;;;;;;;;;;7.46;52.23;96974.00;5075070;28;1062;-60
2022/12/19 10:49:05;;;;;;;;;;;;;;;7.38;52.66;96971.78;5074832;28;1361;-60
2022/12/19 10:51:31;;;;;;;;;;;;;;;7.31;51.06;96966.03;5074950;28;1030;-60
2022/12/19 10:53:59;;;;;;;;;;;;;;;7.35;52.02;96956.03;5099282;28;1091;-60
2022/12/19 10:56:26;;;;;;;;;;;;;;;7.35;51.39;96959.56;5115270;28;1010;-60
2022/12/19 10:58:56;;;;;;;;;;;;;;;7.29;51.33;96959.94;5115614;28;1079;-60
2022/12/19 11:01:22;;;;;;;;;;;;;;;7.39;52.49;96949.56;5115193;28;1031;-60
2022/12/19 11:03:51;;;;;;;;;;;;;;;7.50;52.63;96955.06;5115167;28;1905;-60
2022/12/19 11:06:36;;;;;;;;;;;;;;;7.63;52.76;96961.31;5115276;28;976;-60
2022/12/19 11:09:16;;;;;;;;;;;;;;;7.70;51.85;96953.81;5115103;28;951;-60
2022/12/19 11:11:45;;;;;;;;;;;;;;;7.68;52.17;96957.50;5115103;28;1051;-60
2022/12/19 11:14:25;;;;;;;;;;;;;;;7.74;52.95;96952.66;5115197;28;956;-60
2022/12/19 11:16:51;;;;;;;;;;;;;;;7.88;52.06;96949.06;5115076;28;968;-60
2022/12/19 11:19:36;;;;;;;;;;;;;;;7.92;52.72;96947.06;5114897;28;953;-60
2022/12/19 11:22:13;;;;;;;;;;;;;;;7.90;51.29;96949.81;5113957;28;1036;-60
2022/12/19 11:24:48;;;;;;;;;;;;;;;7.97;52.64;96945.81;5114745;28;1978;-60
2022/12/19 11:27:34;;;;;;;;;;;;;;;8.03;51.44;96949.88;5114823;28;1044;-60
2022/12/19 11:30:00;;;;;;;;;;;;;;;8.00;50.97;96947.41;5114662;28;988;-60
2022/12/19 11:32:34;;;;;;;;;;;;;;;7.97;51.51;96944.97;5113586;28;1031;-60
2022/12/19 11:35:13;;;;;;;;;;;;;;;8.03;52.00;96936.56;5114789;28;1008;-60
2022/12/19 11:37:43;;;;;;;;;;;;;;;8.00;51.71;96937.59;5114499;28;1106;-60
2022/12/19 11:40:14;;;;;;;;;;;;;;;7.98;52.50;96942.16;5115028;28;1036;-60
2022/12/19 11:42:49;;;;;;;;;;;;;;;8.03;52.22;96939.22;5114535;28;1007;-60
2022/12/19 11:45:15;;;;;;;;;;;;;;;8.06;51.65;96936.34;5114576;28;1942;-60
2022/12/19 11:47:44;;;;;;;;;;;;;;;8.13;52.44;96931.47;5114212;28;1259;-60
2022/12/19 11:50:14;;;;;;;;;;;;;;;8.22;51.55;96941.50;5113302;28;1128;-60
2022/12/19 11:52:46;;;;;;;;;;;;;;;8.21;51.42;96934.47;5114133;28;1190;-61
2022/12/19 11:55:21;;;;;;;;;;;;;;;8.25;50.86;96935.09;5114591;28;979;-60
2022/12/19 11:57:47;;;;;;;;;;;;;;;8.15;50.23;96929.53;5114498;28;1038;-60
2022/12/19 12:00:16;;;;;;;;;;;;;;;8.31;50.55;96932.03;5114359;28;1047;-60
2022/12/19 12:03:08;;;;;;;;;;;;;;;8.45;49.63;96931.16;5114249;28;1003;-60
2022/12/19 12:05:44;;;;;;;;;;;;;;;8.54;50.03;96934.03;5090103;28;1973;-60
2022/12/19 12:08:29;;;;;;;;;;;;;;;8.46;49.56;96931.03;5114172;28;1051;-60
2022/12/19 12:11:00;;;;;;;;;;;;;;;8.46;49.13;96932.84;5114165;28;1055;-60
2022/12/19 12:13:34;;;;;;;;;;;;;;;8.57;48.73;96935.63;5113986;28;1039;-60
2022/12/19 12:16:00;;;;;;;;;;;;;;;8.29;49.00;96936.59;5112760;28;1039;-60
2022/12/19 12:18:29;;;;;;;;;;;;;;;8.59;48.42;96933.69;5114091;28;976;-60
2022/12/19 12:21:07;;;;;;;;;;;;;;;8.68;47.56;96938.41;5112721;28;1027;-60
2022/12/19 12:23:45;;;;;;;;;;;;;;;8.76;47.88;96935.22;5112744;28;1914;-60
2022/12/19 12:26:29;;;;;;;;;;;;;;;8.69;47.13;96934.78;5113929;28;1107;-60
2022/12/19 12:29:11;;;;;;;;;;;;;;;8.68;48.91;96929.56;5113859;28;1071;-60
2022/12/19 12:31:42;;;;;;;;;;;;;;;8.81;47.77;96930.41;5113903;28;990;-60
2022/12/19 12:34:20;;;;;;;;;;;;;;;8.78;46.93;96926.16;5113874;28;1035;-60
2022/12/19 12:37:02;;;;;;;;;;;;;;;8.62;47.83;96914.84;5112737;28;1003;-60
2022/12/19 12:39:47;;;;;;;;;;;;;;;8.56;49.61;96896.59;5113893;28;996;-61
2022/12/19 12:42:22;;;;;;;;;;;;;;;8.61;48.51;96915.78;5113748;28;1044;-61
2022/12/19 12:44:51;;;;;;;;;;;;;;;8.69;48.41;96913.47;5113587;28;1977;-60
2022/12/19 12:47:20;;;;;;;;;;;;;;;8.82;48.35;96913.47;5112389;28;1614;-61
2022/12/19 12:49:50;;;;;;;;;;;;;;;8.72;47.64;96923.91;5112797;28;1028;-59
2022/12/19 12:52:18;;;;;;;;;;;;;;;8.63;47.49;96913.03;5113883;28;1019;-59
2022/12/19 12:54:46;;;;;;;;;;;;;;;8.45;47.94;96926.66;5115770;28;1337;-58
2022/12/19 12:57:31;;;;;;;;;;;;;;;8.18;47.93;96924.03;5117795;28;1071;-58
2022/12/19 13:00:18;;;;;;;;;;;;;;;7.97;48.62;96934.31;5117644;28;1090;-59
2022/12/19 13:02:46;;;;;;;;;;;;;;;7.92;48.48;96929.25;5116720;28;1117;-59
2022/12/19 13:05:21;;;;;;;;;;;;;;;7.98;49.15;96938.66;5117731;28;1906;-59
2022/12/19 13:07:51;;;;;;;;;;;;;;;8.09;49.51;96945.94;5117685;27;1273;-59
2022/12/19 13:10:17;;;;;;;;;;;;;;;8.16;50.43;96947.25;5117546;28;948;-59
2022/12/19 13:12:59;;;;;;;;;;;;;;;8.11;51.22;96949.38;5117725;28;1019;-59
2022/12/19 13:15:28;;;;;;;;;;;;;;;7.79;50.72;96950.50;5117584;28;1066;-57
2022/12/19 13:17:54;;;;;;;;;;;;;;;7.61;51.36;96946.41;5117525;28;1031;-58
2022/12/19 13:20:23;;;;;;;;;;;;;;;7.51;52.49;96943.47;5117318;28;999;-57
2022/12/19 13:22:56;;;;;;;;;;;;;;;7.57;52.09;96924.44;5117306;28;1039;-57
2022/12/19 13:25:25;;;;;;;;;;;;;;;7.63;52.66;96924.03;5115905;28;1985;-57